Terminal Aerodrome Forecast
Issued by NWS

Home | Current Version | Previous Version | Text Only | Print | Product List | Glossary On
Versions: 1 2 3 4 5 6 7 8 9 10 11 12 13
000
FTUS43 KEAX 220520
TAFSTJ
TAF
KSTJ 220520Z 2206/2306 18011KT P6SM FEW250
     FM221400 17014G24KT P6SM FEW060
     FM230200 16008KT P6SM FEW250=

USA.gov is the U.S. government's official web portal to all federal, state and local government web resources and services.